Time;durP1;ratioP1;P1;durP2;ratioP2;P2;SDS_P1;SDS_P2;PMS_P1;PMS_P2;Temp;Humidity;BMP_temperature;BMP_pressure;BME280_temperature;BME280_humidity;BME280_pressure;Samples;Min_cycle;Max_cycle;Signal;HPM_P1;HPM_P2
2023/07/09 00:00:55;;;;;;;3.45;1.38;;;18.40;99.90;;;;;;5082699;28;20039;-69
2023/07/09 00:03:20;;;;;;;9.13;1.75;;;18.40;99.90;;;;;;5081209;28;20489;-70
2023/07/09 00:05:48;;;;;;;1.30;0.98;;;18.30;99.90;;;;;;5082757;28;20047;-70
2023/07/09 00:08:29;;;;;;;0.28;0.28;;;18.30;1.00;;;;;;5082822;28;20398;-69
2023/07/09 00:10:55;;;;;;;2.60;1.00;;;18.20;99.90;;;;;;5082691;28;20059;-70
2023/07/09 00:13:26;;;;;;;1.27;1.17;;;18.20;1.00;;;;;;5082545;28;20052;-69
2023/07/09 00:15:54;;;;;;;1.30;0.80;;;18.20;99.90;;;;;;5082331;28;20490;-70
2023/07/09 00:18:20;;;;;;;1.10;0.93;;;18.20;1.00;;;;;;5082323;28;20569;-69
2023/07/09 00:20:47;;;;;;;2.65;1.30;;;18.20;1.00;;;;;;5082482;28;20044;-70
2023/07/09 00:23:13;;;;;;;1.10;0.70;;;18.10;1.00;;;;;;5068660;28;20051;-69
2023/07/09 00:25:44;;;;;;;1.20;0.73;;;18.10;7.70;;;;;;5064654;28;20048;-68
2023/07/09 00:28:19;;;;;;;2.53;1.25;;;18.10;99.90;;;;;;5064508;28;20059;-69
2023/07/09 00:30:47;;;;;;;3.40;1.00;;;18.10;99.90;;;;;;5064114;28;20140;-71
2023/07/09 00:33:15;;;;;;;1.48;0.50;;;18.00;99.90;;;;;;5064482;28;20052;-71
2023/07/09 00:35:42;;;;;;;4.03;0.47;;;17.90;99.90;;;;;;5065407;28;20139;-71
2023/07/09 00:38:13;;;;;;;0.40;0.30;;;17.80;1.00;;;;;;5084840;28;20478;-71
2023/07/09 00:40:59;;;;;;;1.23;0.90;;;17.70;1.00;;;;;;5084483;28;20551;-68
2023/07/09 00:43:34;;;;;;;1.75;1.23;;;17.60;1.00;;;;;;5085171;28;20091;-69
2023/07/09 00:46:19;;;;;;;0.35;0.30;;;17.70;1.00;;;;;;5084861;28;20040;-69
2023/07/09 00:49:09;;;;;;;0.70;0.20;;;17.70;1.00;;;;;;5087823;28;20075;-69
2023/07/09 00:51:42;;;;;;;0.63;0.60;;;17.80;8.30;;;;;;5074543;28;20451;-69
2023/07/09 00:54:37;;;;;;;0.35;0.35;;;17.80;99.90;;;;;;5089001;28;20105;-69
2023/07/09 00:57:12;;;;;;;0.80;0.73;;;17.60;95.30;;;;;;5085928;28;20489;-70
2023/07/09 00:59:40;;;;;;;1.25;0.75;;;17.70;99.90;;;;;;5088081;28;20085;-71
2023/07/09 01:02:08;;;;;;;1.02;0.88;;;17.60;99.90;;;;;;5088096;28;20453;-71
2023/07/09 01:04:36;;;;;;;0.28;0.28;;;17.60;99.90;;;;;;5087692;28;20051;-69
2023/07/09 01:07:02;;;;;;;0.90;0.80;;;17.70;99.90;;;;;;5088307;28;20052;-69
2023/07/09 01:09:27;;;;;;;1.63;1.23;;;17.60;99.90;;;;;;5088089;28;20077;-70
2023/07/09 01:12:00;;;;;;;1.95;1.35;;;17.60;99.90;;;;;;5088168;28;20048;-70
2023/07/09 01:14:27;;;;;;;2.10;1.08;;;17.60;99.90;;;;;;5088702;28;20048;-69
2023/07/09 01:17:05;;;;;;;1.63;1.45;;;17.60;99.90;;;;;;5088796;28;20043;-69
2023/07/09 01:19:42;;;;;;;0.20;0.20;;;17.80;99.90;;;;;;5089552;28;20135;-69
2023/07/09 01:22:11;;;;;;;2.50;2.05;;;17.70;99.90;;;;;;5090015;28;20412;-69
2023/07/09 01:24:48;;;;;;;15.90;1.63;;;17.60;99.90;;;;;;5089519;28;20044;-69
2023/07/09 01:27:15;;;;;;;0.68;0.57;;;17.60;69.00;;;;;;5089532;28;20056;-69
2023/07/09 01:29:42;;;;;;;1.90;0.68;;;17.50;99.90;;;;;;5089360;28;20044;-69
2023/07/09 01:32:10;;;;;;;2.20;0.43;;;17.60;99.90;;;;;;5088476;28;20054;-69
2023/07/09 01:34:35;;;;;;;0.90;0.77;;;17.50;99.90;;;;;;5088544;28;20140;-69
2023/07/09 01:37:01;;;;;;;0.63;0.63;;;17.50;1.00;;;;;;5088462;28;20471;-69
2023/07/09 01:39:28;;;;;;;1.10;0.47;;;17.40;1.00;;;;;;5088414;28;20541;-69
2023/07/09 01:41:55;;;;;;;0.57;0.47;;;17.40;1.00;;;;;;5087973;28;20052;-69
2023/07/09 01:44:21;;;;;;;1.77;1.00;;;17.40;1.00;;;;;;5088050;28;20494;-69
2023/07/09 01:46:46;;;;;;;1.85;0.85;;;17.30;1.00;;;;;;5088195;28;20043;-69
2023/07/09 01:49:12;;;;;;;0.55;0.50;;;17.30;1.00;;;;;;5088224;28;20036;-70
2023/07/09 01:51:39;;;;;;;1.08;0.80;;;17.30;1.00;;;;;;5089263;28;20105;-69
2023/07/09 01:54:05;;;;;;;0.43;0.43;;;17.30;99.00;;;;;;5088845;28;20059;-69
2023/07/09 01:56:30;;;;;;;0.82;0.82;;;17.20;18.30;;;;;;5088687;28;20095;-69
2023/07/09 01:59:01;;;;;;;0.93;0.88;;;17.20;90.90;;;;;;5087291;28;20067;-70
2023/07/09 02:01:30;;;;;;;1.63;1.42;;;17.10;99.90;;;;;;5087859;28;20122;-69
2023/07/09 02:03:55;;;;;;;0.75;0.70;;;17.20;99.90;;;;;;5088432;28;20059;-69
2023/07/09 02:06:24;;;;;;;1.17;1.05;;;17.00;99.90;;;;;;5088433;28;20044;-69
2023/07/09 02:08:49;;;;;;;0.38;0.38;;;17.10;99.90;;;;;;5088351;28;20059;-69
2023/07/09 02:11:15;;;;;;;3.40;1.38;;;16.80;99.90;;;;;;5088913;28;20097;-69
2023/07/09 02:13:41;;;;;;;0.80;0.65;;;16.80;1.00;;;;;;5088820;28;20089;-69
2023/07/09 02:16:06;;;;;;;1.17;0.68;;;17.10;1.00;;;;;;5088499;28;20085;-69
2023/07/09 02:18:32;;;;;;;1.15;0.70;;;16.70;1.00;;;;;;5088058;28;20059;-69
2023/07/09 02:20:57;;;;;;;1.23;1.13;;;16.70;1.00;;;;;;5087589;28;20040;-69
2023/07/09 02:23:28;;;;;;;0.80;0.60;;;16.70;1.00;;;;;;5087755;28;20532;-70
2023/07/09 02:25:53;;;;;;;4.00;1.80;;;16.60;90.40;;;;;;5087940;28;20047;-69
2023/07/09 02:28:19;;;;;;;1.63;0.90;;;16.50;98.50;;;;;;5087400;28;20047;-69
2023/07/09 02:30:45;;;;;;;0.88;0.85;;;16.50;99.90;;;;;;5086852;28;20394;-69
2023/07/09 02:33:11;;;;;;;2.03;1.15;;;16.80;99.90;;;;;;5085471;28;20047;-69
2023/07/09 02:35:37;;;;;;;1.08;0.82;;;16.40;99.90;;;;;;5084182;28;20058;-69
2023/07/09 02:38:03;;;;;;;1.65;0.85;;;16.40;99.90;;;;;;5084509;28;20044;-69
2023/07/09 02:40:29;;;;;;;1.90;1.00;;;16.30;99.90;;;;;;5084257;28;20461;-69
2023/07/09 02:42:55;;;;;;;0.63;0.63;;;16.30;99.90;;;;;;5083501;28;20044;-69
2023/07/09 02:45:21;;;;;;;1.30;1.20;;;16.30;99.90;;;;;;5083360;28;20335;-69
2023/07/09 02:47:47;;;;;;;0.82;0.55;;;16.20;99.90;;;;;;5083814;28;20109;-69
2023/07/09 02:50:12;;;;;;;0.35;0.35;;;16.10;99.90;;;;;;5084153;28;20082;-69
2023/07/09 02:52:39;;;;;;;0.90;0.68;;;16.10;99.90;;;;;;5071929;28;20033;-69
2023/07/09 02:55:05;;;;;;;0.57;0.55;;;16.10;99.90;;;;;;5073780;28;20177;-69
2023/07/09 02:57:31;;;;;;;0.38;0.30;;;16.10;99.90;;;;;;5073178;28;20495;-69
2023/07/09 02:59:56;;;;;;;0.20;0.20;;;16.00;99.90;;;;;;5072158;28;20045;-69
2023/07/09 03:02:22;;;;;;;0.10;0.10;;;15.90;99.90;;;;;;5066032;28;20223;-69
2023/07/09 03:04:48;;;;;;;0.38;0.32;;;15.90;97.00;;;;;;5063620;28;20056;-69
2023/07/09 03:07:13;;;;;;;0.50;0.30;;;15.90;96.20;;;;;;5063722;28;20048;-69
2023/07/09 03:09:39;;;;;;;0.28;0.22;;;15.80;91.40;;;;;;5063924;28;20507;-69
2023/07/09 03:12:05;;;;;;;0.70;0.57;;;15.90;99.90;;;;;;5062919;28;20044;-69
2023/07/09 03:14:31;;;;;;;0.20;0.20;;;15.90;99.90;;;;;;5063765;28;20127;-69
2023/07/09 03:16:56;;;;;;;0.10;0.10;;;16.00;99.90;;;;;;5063374;28;20246;-69
2023/07/09 03:19:22;;;;;;;0.30;0.15;;;16.00;99.90;;;;;;5063016;28;20045;-69
2023/07/09 03:21:47;;;;;;;0.90;0.77;;;16.10;99.90;;;;;;5063212;28;20045;-69
2023/07/09 03:24:18;;;;;;;2.13;1.33;;;16.10;99.90;;;;;;5062916;28;20083;-69
2023/07/09 03:26:44;;;;;;;0.98;0.70;;;16.10;99.90;;;;;;5063250;28;20097;-69
2023/07/09 03:29:10;;;;;;;1.50;0.93;;;16.10;99.90;;;;;;5063109;28;20056;-69
2023/07/09 03:31:36;;;;;;;1.15;0.95;;;15.90;99.90;;;;;;5063106;28;20123;-69
2023/07/09 03:34:02;;;;;;;3.00;1.63;;;15.90;99.90;;;;;;5063029;28;20520;-69
2023/07/09 03:36:28;;;;;;;1.77;1.30;;;15.80;99.90;;;;;;5062297;28;20044;-69
2023/07/09 03:38:54;;;;;;;1.30;1.20;;;15.80;99.90;;;;;;5062962;28;20427;-69
2023/07/09 03:41:20;;;;;;;0.70;0.70;;;15.80;99.90;;;;;;5062433;28;20113;-69
2023/07/09 03:43:46;;;;;;;1.20;1.10;;;15.90;99.90;;;;;;5062397;28;20105;-69
2023/07/09 03:46:12;;;;;;;0.93;0.63;;;15.90;99.90;;;;;;5062791;28;20049;-69
2023/07/09 03:48:38;;;;;;;2.55;0.82;;;16.00;99.90;;;;;;5063013;28;20044;-69
2023/07/09 03:51:04;;;;;;;0.77;0.68;;;16.10;99.90;;;;;;5062481;28;20529;-69
2023/07/09 03:53:29;;;;;;;0.30;0.30;;;16.10;99.90;;;;;;5062175;28;20138;-69
2023/07/09 03:55:56;;;;;;;0.82;0.68;;;16.10;99.90;;;;;;5063006;28;20051;-69
2023/07/09 03:58:23;;;;;;;1.27;1.17;;;16.20;99.90;;;;;;5062809;28;20052;-69
2023/07/09 04:00:49;;;;;;;0.63;0.55;;;16.30;99.90;;;;;;5063141;28;20060;-69
2023/07/09 04:03:14;;;;;;;1.08;0.85;;;16.20;99.90;;;;;;5062371;28;20036;-69
2023/07/09 04:05:40;;;;;;;0.47;0.47;;;16.20;99.90;;;;;;5063021;28;20116;-69
2023/07/09 04:08:05;;;;;;;1.27;0.93;;;16.20;99.90;;;;;;5062502;28;20506;-69
2023/07/09 04:10:32;;;;;;;1.20;1.10;;;16.30;99.90;;;;;;5062670;28;20127;-69
2023/07/09 04:12:58;;;;;;;1.48;0.73;;;16.40;99.90;;;;;;5062644;28;20577;-69
2023/07/09 04:15:24;;;;;;;0.75;0.40;;;16.40;99.90;;;;;;5062720;28;20055;-69
2023/07/09 04:17:49;;;;;;;1.02;0.85;;;16.50;99.90;;;;;;5062705;28;20048;-69
2023/07/09 04:20:15;;;;;;;0.98;0.82;;;16.60;99.90;;;;;;5062550;28;20041;-69
2023/07/09 04:22:41;;;;;;;1.98;0.95;;;16.70;99.90;;;;;;5061665;28;20482;-69
2023/07/09 04:25:09;;;;;;;0.63;0.63;;;16.90;81.60;;;;;;5062453;28;20052;-70
2023/07/09 04:27:36;;;;;;;0.45;0.32;;;17.00;60.80;;;;;;5062510;28;20036;-69
2023/07/09 04:30:04;;;;;;;0.80;0.77;;;17.10;1.00;;;;;;5062528;28;20049;-69
2023/07/09 04:32:30;;;;;;;1.45;0.73;;;17.20;9.40;;;;;;5062387;28;20084;-69
2023/07/09 04:34:56;;;;;;;1.58;0.93;;;17.40;17.40;;;;;;5062363;28;20091;-69
2023/07/09 04:37:22;;;;;;;2.70;1.27;;;17.50;19.10;;;;;;5062507;28;20040;-69
2023/07/09 04:39:47;;;;;;;0.40;0.40;;;17.70;1.00;;;;;;5062379;28;20041;-69
2023/07/09 04:42:16;;;;;;;0.22;0.22;;;17.90;99.90;;;;;;5063823;28;20052;-69
2023/07/09 04:44:42;;;;;;;0.30;0.20;;;18.10;99.90;;;;;;5063636;28;20052;-69
2023/07/09 04:47:08;;;;;;;0.60;0.52;;;18.20;22.60;;;;;;5063873;28;20415;-69
2023/07/09 04:49:33;;;;;;;0.32;0.32;;;18.50;1.00;;;;;;5063647;28;20449;-69
2023/07/09 04:52:00;;;;;;;1.30;0.63;;;18.70;99.90;;;;;;5063577;28;20048;-69
2023/07/09 04:54:27;;;;;;;0.40;0.30;;;19.10;99.90;;;;;;5063202;28;20049;-69
2023/07/09 04:56:53;;;;;;;1.08;0.77;;;19.60;99.90;;;;;;5063231;28;20048;-70
2023/07/09 04:59:19;;;;;;;0.73;0.70;;;20.10;99.90;;;;;;5062942;28;20049;-69
2023/07/09 05:01:45;;;;;;;0.90;0.50;;;20.60;1.00;;;;;;5063083;28;20045;-70
2023/07/09 05:04:10;;;;;;;1.80;0.70;;;21.10;99.90;;;;;;5063692;28;20051;-70
2023/07/09 05:06:36;;;;;;;3.42;1.45;;;21.50;99.90;;;;;;5064562;28;20044;-70
2023/07/09 05:09:02;;;;;;;0.63;0.32;;;21.90;99.90;;;;;;5063700;28;20457;-69
2023/07/09 05:11:28;;;;;;;1.00;0.65;;;22.20;99.90;;;;;;5064008;28;20044;-70
2023/07/09 05:13:53;;;;;;;0.38;0.38;;;22.40;99.90;;;;;;5063697;28;20048;-69
2023/07/09 05:16:19;;;;;;;0.45;0.43;;;22.70;1.00;;;;;;5063476;28;20102;-69
2023/07/09 05:18:45;;;;;;;0.20;0.20;;;23.20;99.90;;;;;;5063748;28;20055;-70
2023/07/09 05:21:12;;;;;;;0.25;0.25;;;23.50;99.90;;;;;;5063439;28;20048;-70
2023/07/09 05:23:37;;;;;;;0.85;0.70;;;23.60;1.00;;;;;;5063256;28;20040;-70
2023/07/09 05:26:04;;;;;;;0.73;0.73;;;23.50;1.00;;;;;;5063442;28;20048;-70
2023/07/09 05:28:32;;;;;;;0.40;0.40;;;23.50;99.90;;;;;;5063575;28;20040;-70
2023/07/09 05:30:58;;;;;;;0.77;0.43;;;23.80;99.90;;;;;;5061760;28;20048;-70
2023/07/09 05:33:24;;;;;;;0.70;0.68;;;24.30;99.90;;;;;;5063500;28;20071;-73
2023/07/09 05:35:49;;;;;;;0.50;0.40;;;24.80;99.90;;;;;;5066667;28;20513;-70
2023/07/09 05:38:16;;;;;;;0.10;0.10;;;25.20;99.90;;;;;;5066802;28;20044;-70
2023/07/09 05:40:43;;;;;;;1.10;0.95;;;25.10;1.00;;;;;;5066772;28;20057;-70
2023/07/09 05:43:09;;;;;;;1.15;0.80;;;25.10;82.20;;;;;;5066872;28;20040;-70
2023/07/09 05:45:35;;;;;;;4.40;0.77;;;25.50;99.90;;;;;;5067438;28;20048;-70
2023/07/09 05:48:01;;;;;;;2.08;1.58;;;26.30;62.70;;;;;;5067346;28;20048;-70
2023/07/09 05:50:28;;;;;;;0.57;0.52;;;26.90;43.40;;;;;;5066687;28;20076;-70
2023/07/09 05:52:54;;;;;;;0.95;0.82;;;27.30;17.30;;;;;;5066396;28;20055;-70
2023/07/09 05:55:20;;;;;;;0.52;0.45;;;27.50;1.00;;;;;;5066717;28;20056;-70
2023/07/09 05:57:46;;;;;;;0.20;0.20;;;27.40;1.00;;;;;;5066794;28;20049;-70
2023/07/09 06:00:12;;;;;;;2.45;1.85;;;27.20;1.00;;;;;;5066100;28;20063;-70
2023/07/09 06:02:38;;;;;;;1.25;1.15;;;26.80;1.00;;;;;;5064328;28;20044;-70
2023/07/09 06:05:05;;;;;;;4.97;1.60;;;26.40;1.00;;;;;;5064133;28;20055;-70
2023/07/09 06:07:30;;;;;;;1.25;0.30;;;26.10;1.00;;;;;;5064110;28;20083;-70
2023/07/09 06:09:57;;;;;;;2.80;1.75;;;25.80;1.00;;;;;;5064292;28;20076;-70
2023/07/09 06:12:23;;;;;;;0.50;0.32;;;25.60;1.00;;;;;;5064126;28;20127;-70
2023/07/09 06:14:49;;;;;;;0.95;0.65;;;25.40;99.90;;;;;;5064257;28;20617;-70
2023/07/09 06:17:15;;;;;;;0.52;0.50;;;25.20;99.90;;;;;;5064371;28;20051;-70
2023/07/09 06:19:40;;;;;;;0.95;0.77;;;25.00;99.90;;;;;;5063963;28;20415;-70
2023/07/09 06:22:06;;;;;;;2.70;1.00;;;25.00;99.90;;;;;;5064099;28;20094;-70
2023/07/09 06:24:32;;;;;;;1.67;1.02;;;25.10;99.90;;;;;;5064040;28;20055;-70
2023/07/09 06:26:59;;;;;;;1.58;0.90;;;25.10;99.90;;;;;;5064211;28;20040;-70
2023/07/09 06:29:25;;;;;;;3.53;0.82;;;25.10;99.90;;;;;;5064104;28;20129;-70
2023/07/09 06:31:51;;;;;;;2.75;1.23;;;25.30;99.90;;;;;;5063675;28;20514;-70
2023/07/09 06:34:16;;;;;;;0.55;0.55;;;25.50;99.90;;;;;;5063886;28;20044;-70
2023/07/09 06:36:42;;;;;;;0.77;0.52;;;25.90;99.90;;;;;;5063795;28;20052;-70
2023/07/09 06:39:08;;;;;;;0.90;0.85;;;26.60;1.00;;;;;;5064008;28;20119;-70
2023/07/09 06:41:38;;;;;;;1.38;0.95;;;27.40;1.00;;;;;;5063599;28;20132;-70
2023/07/09 06:44:05;;;;;;;0.75;0.75;;;28.20;1.00;;;;;;5063814;28;20055;-70
2023/07/09 06:46:31;;;;;;;1.70;0.85;;;29.10;1.00;;;;;;5070719;28;20577;-70
2023/07/09 06:48:57;;;;;;;8.75;1.30;;;29.40;1.00;;;;;;5082201;28;20039;-70
2023/07/09 06:51:22;;;;;;;1.10;0.50;;;29.80;1.00;;;;;;5081700;28;20039;-70
2023/07/09 06:53:50;;;;;;;1.85;0.95;;;30.10;99.90;;;;;;5064177;28;20053;-70
2023/07/09 06:56:16;;;;;;;1.85;0.73;;;30.50;99.90;;;;;;5063171;28;20525;-70
2023/07/09 06:58:42;;;;;;;0.73;0.57;;;30.80;99.90;;;;;;5062730;28;20052;-70
2023/07/09 07:01:10;;;;;;;0.70;0.63;;;31.20;99.90;;;;;;5063252;28;20052;-70
2023/07/09 07:03:36;;;;;;;2.05;0.60;;;31.10;99.90;;;;;;5063044;28;20059;-70
2023/07/09 07:06:02;;;;;;;2.95;1.88;;;31.20;99.90;;;;;;5082416;28;20048;-70
2023/07/09 07:08:28;;;;;;;1.25;1.00;;;31.30;99.90;;;;;;5083108;28;20051;-70
2023/07/09 07:11:02;;;;;;;1.25;0.95;;;31.50;99.90;;;;;;5083330;28;20085;-70
2023/07/09 07:13:36;;;;;;;3.05;0.90;;;31.30;99.90;;;;;;5083671;28;20468;-70
2023/07/09 07:16:05;;;;;;;4.38;1.38;;;31.10;99.90;;;;;;5083380;28;20059;-70
2023/07/09 07:18:30;;;;;;;0.73;0.55;;;31.20;99.90;;;;;;5083488;28;20051;-70
2023/07/09 07:20:57;;;;;;;0.98;0.80;;;31.70;99.90;;;;;;5083479;28;20051;-70
2023/07/09 07:23:23;;;;;;;1.27;1.17;;;32.10;99.90;;;;;;5083297;28;20391;-70
2023/07/09 07:25:49;;;;;;;0.95;0.52;;;32.50;99.90;;;;;;5083190;28;20052;-70
2023/07/09 07:28:15;;;;;;;1.38;0.70;;;32.80;99.90;;;;;;5083035;28;20040;-70
2023/07/09 07:30:41;;;;;;;2.85;0.93;;;33.40;99.90;;;;;;5082993;28;20044;-70
2023/07/09 07:33:07;;;;;;;0.35;0.35;;;33.80;99.90;;;;;;5083612;28;20127;-70
2023/07/09 07:35:33;;;;;;;1.10;0.77;;;34.10;99.90;;;;;;5083019;28;20119;-70
2023/07/09 07:37:58;;;;;;;2.17;1.20;;;34.40;99.90;;;;;;5082862;28;20044;-70
2023/07/09 07:40:24;;;;;;;2.00;1.08;;;34.20;99.90;;;;;;5082284;28;20449;-70
2023/07/09 07:42:50;;;;;;;0.28;0.20;;;34.10;99.90;;;;;;5082493;28;20134;-70
2023/07/09 07:45:16;;;;;;;0.13;0.13;;;33.90;99.90;;;;;;5082633;28;20422;-70
2023/07/09 07:47:42;;;;;;;1.65;1.30;;;33.50;99.90;;;;;;5082920;28;20047;-70
2023/07/09 07:50:08;;;;;;;0.95;0.68;;;33.50;99.90;;;;;;5082579;28;20052;-69
2023/07/09 07:52:37;;;;;;;0.35;0.30;;;33.70;99.90;;;;;;5082463;28;20429;-70
2023/07/09 07:55:07;;;;;;;1.75;1.30;;;34.10;99.90;;;;;;5082288;28;20131;-70
2023/07/09 07:57:32;;;;;;;0.63;0.50;;;34.50;99.90;;;;;;5081632;28;20051;-70
2023/07/09 07:59:58;;;;;;;0.52;0.47;;;34.80;99.90;;;;;;5082275;28;20495;-71
2023/07/09 08:02:24;;;;;;;0.73;0.47;;;35.20;99.90;;;;;;5082431;28;20475;-71
2023/07/09 08:04:50;;;;;;;1.33;1.00;;;35.70;99.90;;;;;;5082421;28;20127;-72
2023/07/09 08:07:18;;;;;;;0.45;0.45;;;36.00;99.90;;;;;;5081434;28;20127;-72
2023/07/09 08:09:46;;;;;;;1.55;0.63;;;36.20;99.90;;;;;;5082297;28;20059;-72
2023/07/09 08:12:13;;;;;;;0.98;0.70;;;36.20;99.90;;;;;;5082187;28;20499;-72
2023/07/09 08:14:41;;;;;;;4.43;0.95;;;36.40;99.90;;;;;;5078993;28;20426;-71
2023/07/09 08:17:07;;;;;;;0.47;0.35;;;36.70;93.20;;;;;;5065418;28;20127;-71
2023/07/09 08:19:47;;;;;;;1.92;1.08;;;36.90;88.60;;;;;;5062081;28;20086;-72
2023/07/09 08:22:15;;;;;;;0.50;0.50;;;37.20;55.40;;;;;;5062109;28;20083;-72
2023/07/09 08:24:40;;;;;;;2.15;0.98;;;37.30;25.50;;;;;;5061778;28;20102;-72
2023/07/09 08:27:07;;;;;;;1.35;0.73;;;37.40;51.40;;;;;;5081585;28;20047;-71
2023/07/09 08:29:34;;;;;;;4.50;1.00;;;37.50;33.30;;;;;;5064863;28;20048;-71
2023/07/09 08:31:59;;;;;;;1.30;0.60;;;37.50;34.00;;;;;;5065022;28;20140;-71
2023/07/09 08:34:25;;;;;;;0.95;0.52;;;37.50;1.00;;;;;;5075087;28;20134;-71
2023/07/09 08:36:51;;;;;;;1.30;0.80;;;37.10;1.00;;;;;;5084852;28;20572;-71
2023/07/09 08:39:16;;;;;;;1.17;0.88;;;36.70;1.00;;;;;;5084769;28;20036;-71
2023/07/09 08:41:47;;;;;;;0.20;0.20;;;36.70;1.00;;;;;;5084386;28;20086;-71
2023/07/09 08:44:33;;;;;;;1.17;0.80;;;36.80;1.00;;;;;;5084407;28;21033;-71
2023/07/09 08:47:17;;;;;;;0.82;0.68;;;36.70;1.00;;;;;;5082788;28;20048;-72
2023/07/09 08:49:59;;;;;;;2.08;1.15;;;36.50;1.00;;;;;;5082860;28;20059;-72
2023/07/09 08:52:29;;;;;;;2.10;0.88;;;36.60;1.00;;;;;;5082925;28;20111;-71
2023/07/09 08:54:57;;;;;;;2.97;1.30;;;36.60;1.00;;;;;;5083896;28;20048;-72
2023/07/09 08:57:27;;;;;;;0.73;0.60;;;37.10;1.00;;;;;;5083729;28;20101;-72
2023/07/09 09:00:00;;;;;;;5.97;0.80;;;37.30;1.00;;;;;;5083847;28;20395;-72
2023/07/09 09:02:46;;;;;;;0.47;0.32;;;37.90;1.00;;;;;;5083688;28;20418;-72
2023/07/09 09:05:17;;;;;;;1.45;1.05;;;38.50;1.00;;;;;;5063210;28;20052;-71
2023/07/09 09:07:44;;;;;;;1.58;1.00;;;39.00;1.00;;;;;;5067314;28;20122;-72
2023/07/09 09:10:20;;;;;;;3.50;1.10;;;38.70;1.00;;;;;;5087453;28;20052;-71
2023/07/09 09:13:04;;;;;;;0.73;0.57;;;38.30;1.00;;;;;;5087108;28;20474;-72
2023/07/09 09:15:30;;;;;;;5.78;0.63;;;39.20;1.00;;;;;;5087047;28;20055;-72
2023/07/09 09:18:09;;;;;;;0.20;0.20;;;39.80;1.00;;;;;;5087209;28;20075;-72
2023/07/09 09:20:35;;;;;;;2.25;0.95;;;39.50;1.00;;;;;;5086807;28;20052;-71
2023/07/09 09:23:06;;;;;;;0.45;0.38;;;39.90;1.00;;;;;;5086576;28;20082;-72
2023/07/09 09:25:37;;;;;;;1.60;0.47;;;38.50;1.00;;;;;;5087302;28;20609;-71
2023/07/09 09:28:03;;;;;;;0.40;0.40;;;39.30;1.00;;;;;;5086956;28;20067;-71
2023/07/09 09:30:30;;;;;;;1.95;0.90;;;39.40;1.00;;;;;;5075600;28;20139;-71
2023/07/09 09:32:57;;;;;;;0.98;0.88;;;38.00;1.00;;;;;;5069721;28;20119;-71
2023/07/09 09:35:29;;;;;;;0.73;0.47;;;39.00;1.00;;;;;;5077708;28;20495;-72
2023/07/09 09:37:56;;;;;;;0.63;0.60;;;39.60;1.00;;;;;;5076476;28;20102;-72
2023/07/09 09:40:24;;;;;;;0.43;0.38;;;40.30;1.00;;;;;;5084144;28;20399;-71
2023/07/09 09:42:51;;;;;;;1.48;0.60;;;40.00;1.00;;;;;;5086979;28;20060;-69
2023/07/09 09:45:20;;;;;;;0.55;0.45;;;39.70;1.00;;;;;;5086585;28;20098;-71
2023/07/09 09:47:47;;;;;;;1.73;1.23;;;39.80;1.00;;;;;;5087194;28;20101;-72
2023/07/09 09:50:18;;;;;;;3.08;0.95;;;39.00;1.00;;;;;;5087293;28;20040;-71
2023/07/09 09:52:45;;;;;;;0.55;0.50;;;39.20;1.00;;;;;;5086996;28;20101;-71
2023/07/09 09:55:19;;;;;;;2.08;1.00;;;38.40;1.00;;;;;;5086847;28;20452;-71
2023/07/09 09:57:50;;;;;;;1.73;0.90;;;38.50;1.00;;;;;;5086534;28;20055;-69
2023/07/09 10:00:16;;;;;;;1.38;0.73;;;38.70;99.90;;;;;;5086875;28;20055;-69
2023/07/09 10:02:45;;;;;;;0.68;0.43;;;38.60;1.00;;;;;;5073002;28;20041;-69
2023/07/09 10:05:29;;;;;;;1.02;0.30;;;38.70;99.90;;;;;;5066543;28;20566;-69
2023/07/09 10:08:11;;;;;;;0.20;0.20;;;38.70;1.00;;;;;;5066255;28;20131;-69
2023/07/09 10:10:39;;;;;;;0.20;0.20;;;37.70;99.90;;;;;;5066459;28;20056;-69
2023/07/09 10:13:22;;;;;;;3.67;0.68;;;37.80;99.90;;;;;;5066646;28;20067;-69
2023/07/09 10:16:16;;;;;;;1.27;0.73;;;37.80;99.90;;;;;;5065826;28;20079;-69
2023/07/09 10:18:58;;;;;;;16.13;1.33;;;37.80;99.90;;;;;;5065267;28;20052;-69
2023/07/09 10:21:34;;;;;;;0.20;0.20;;;37.20;99.90;;;;;;5064555;28;20052;-69
2023/07/09 10:24:48;;;;;;;1.52;1.15;;;37.10;99.90;;;;;;5064845;28;20074;-70
2023/07/09 10:27:25;;;;;;;1.13;0.60;;;37.20;99.90;;;;;;5021984;28;20136;-69
2023/07/09 10:30:14;;;;;;;1.45;0.63;;;37.10;99.90;;;;;;5022474;28;20053;-72
2023/07/09 10:32:55;;;;;;;1.05;0.60;;;37.20;99.90;;;;;;5055057;28;20491;-72
2023/07/09 10:35:32;;;;;;;0.43;0.43;;;37.00;99.90;;;;;;5065941;28;20139;-71
2023/07/09 10:38:27;;;;;;;6.28;0.80;;;37.00;99.90;;;;;;5065530;28;20094;-71
2023/07/09 10:40:55;;;;;;;;;;;37.00;99.90;;;;;;5049384;28;20384;-72
2023/07/09 10:43:35;;;;;;;0.50;0.45;;;37.30;99.90;;;;;;5065617;28;19930;-72
2023/07/09 10:46:14;;;;;;;0.45;0.40;;;37.40;99.90;;;;;;5065334;28;20070;-72
2023/07/09 10:49:00;;;;;;;1.10;0.77;;;37.70;99.90;;;;;;5064840;28;20055;-72
2023/07/09 10:51:37;;;;;;;0.90;0.75;;;37.60;99.90;;;;;;5064808;28;20467;-72
2023/07/09 10:54:05;;;;;;;0.75;0.55;;;37.40;99.90;;;;;;5064471;28;20127;-72
2023/07/09 10:56:35;;;;;;;1.63;0.95;;;37.50;99.90;;;;;;5064647;28;20041;-72
2023/07/09 10:59:10;;;;;;;1.80;1.20;;;37.70;99.90;;;;;;5064624;28;20044;-71
2023/07/09 11:01:40;;;;;;;1.45;0.85;;;37.90;99.90;;;;;;5064241;28;20060;-71
2023/07/09 11:04:11;;;;;;;0.73;0.60;;;37.70;99.90;;;;;;5064072;28;20045;-71
2023/07/09 11:06:41;;;;;;;1.30;1.05;;;37.60;99.90;;;;;;5064175;28;20133;-71
2023/07/09 11:09:21;;;;;;;1.77;1.20;;;37.60;99.90;;;;;;5063999;28;20067;-71
2023/07/09 11:11:53;;;;;;;0.20;0.20;;;37.90;99.90;;;;;;5064517;28;20056;-71
2023/07/09 11:14:23;;;;;;;1.67;1.13;;;38.20;99.90;;;;;;5064075;28;20059;-71
2023/07/09 11:16:49;;;;;;;5.07;1.13;;;38.00;99.90;;;;;;5063989;28;20059;-71
2023/07/09 11:19:20;;;;;;;1.40;1.08;;;38.00;99.90;;;;;;5063859;28;20044;-72
2023/07/09 11:22:04;;;;;;;1.00;0.43;;;38.10;99.90;;;;;;5064149;28;20823;-71
2023/07/09 11:24:34;;;;;;;1.67;1.00;;;37.90;99.90;;;;;;5063823;28;20070;-72
2023/07/09 11:27:01;;;;;;;1.02;0.90;;;37.90;99.90;;;;;;5070740;28;20062;-72
2023/07/09 11:29:28;;;;;;;2.58;1.02;;;37.70;99.90;;;;;;5068805;28;20063;-72
2023/07/09 11:31:54;;;;;;;0.77;0.50;;;37.70;99.90;;;;;;5062440;28;20056;-72
2023/07/09 11:34:26;;;;;;;1.33;0.95;;;38.00;99.90;;;;;;5063703;28;20509;-72
2023/07/09 11:36:55;;;;;;;1.27;0.80;;;38.30;99.90;;;;;;5063718;28;20463;-71
2023/07/09 11:39:39;;;;;;;1.10;0.85;;;38.40;99.90;;;;;;5063597;28;20483;-71
2023/07/09 11:42:32;;;;;;;2.22;1.10;;;38.30;99.90;;;;;;5063041;28;20143;-71
2023/07/09 11:45:13;;;;;;;0.43;0.40;;;39.20;99.90;;;;;;5063385;28;20044;-71
2023/07/09 11:47:54;;;;;;;0.65;0.40;;;39.60;99.90;;;;;;5063739;28;20037;-71
2023/07/09 11:50:30;;;;;;;0.45;0.43;;;39.60;99.90;;;;;;5063072;28;20044;-71
2023/07/09 11:53:04;;;;;;;1.45;1.05;;;40.00;99.90;;;;;;5063121;28;20094;-71
2023/07/09 11:55:41;;;;;;;2.03;1.00;;;40.10;99.90;;;;;;5062923;28;20541;-71
2023/07/09 11:58:14;;;;;;;0.95;0.47;;;40.40;99.90;;;;;;5063125;28;20691;-71
2023/07/09 12:00:43;;;;;;;0.65;0.47;;;41.00;99.90;;;;;;5065577;28;20079;-71
2023/07/09 12:03:18;;;;;;;0.95;0.88;;;41.40;99.90;;;;;;5069094;28;20487;-72
2023/07/09 12:05:52;;;;;;;1.25;0.68;;;41.80;99.90;;;;;;5068562;28;20044;-71
2023/07/09 12:08:32;;;;;;;0.40;0.30;;;42.20;99.90;;;;;;5069379;28;21128;-70
2023/07/09 12:10:58;;;;;;;0.38;0.35;;;42.00;99.90;;;;;;5068204;28;20612;-71
2023/07/09 12:13:24;;;;;;;0.55;0.20;;;42.10;99.90;;;;;;5069800;28;20044;-71
2023/07/09 12:15:49;;;;;;;1.08;0.93;;;41.00;99.90;;;;;;5068867;28;20032;-71
2023/07/09 12:18:16;;;;;;;0.98;0.57;;;41.20;99.90;;;;;;5068976;28;20054;-71
2023/07/09 12:20:47;;;;;;;1.30;0.70;;;41.60;99.90;;;;;;5071136;28;20374;-71
2023/07/09 12:23:28;;;;;;;1.77;1.20;;;42.40;99.90;;;;;;5069568;28;20059;-71
2023/07/09 12:25:57;;;;;;;0.70;0.60;;;42.10;99.90;;;;;;5071853;28;20055;-71
2023/07/09 12:28:23;;;;;;;2.38;1.00;;;41.70;99.90;;;;;;5073155;28;20044;-71
2023/07/09 12:30:51;;;;;;;1.13;0.82;;;42.20;99.90;;;;;;5070607;28;20100;-72
2023/07/09 12:33:19;;;;;;;2.97;1.17;;;42.00;99.90;;;;;;5070011;28;20082;-72
2023/07/09 12:35:46;;;;;;;5.28;1.45;;;41.90;99.90;;;;;;5070019;28;20049;-71
2023/07/09 12:38:20;;;;;;;0.50;0.47;;;41.90;99.90;;;;;;5070114;28;20139;-71
2023/07/09 12:40:47;;;;;;;0.30;0.28;;;42.20;99.90;;;;;;5066191;28;20067;-72
2023/07/09 12:43:13;;;;;;;1.02;0.50;;;42.60;99.90;;;;;;5067336;28;20076;-72
2023/07/09 12:45:39;;;;;;;0.73;0.30;;;42.80;99.90;;;;;;5071567;28;20054;-71
2023/07/09 12:48:05;;;;;;;0.98;0.60;;;42.70;99.90;;;;;;5071246;28;20131;-71
2023/07/09 12:50:34;;;;;;;1.65;0.65;;;43.00;99.90;;;;;;5069766;28;20087;-71
2023/07/09 12:53:13;;;;;;;1.00;0.60;;;42.10;99.90;;;;;;5070753;28;20050;-71
2023/07/09 12:55:42;;;;;;;0.95;0.73;;;40.80;99.90;;;;;;5069510;28;20445;-71
2023/07/09 12:58:29;;;;;;;9.68;1.27;;;41.10;99.90;;;;;;5069969;28;20044;-71
2023/07/09 13:00:56;;;;;;;1.35;1.00;;;40.90;99.90;;;;;;5081507;28;20048;-71